• Join FlightAware (Why Join?)
  • Login
  • US Flag 
02:01PM EST


 

Airport Tracker/Info


-or-


 

Live Flight TrackerFlight Track Log ✈ ACA831 ✈ 24-Jun-2013 ✈ CYUL - CYYZ

Flight Track Log - Related Links

Times and Time Zones

All times are in EDT time to prevent confusion due to time zone crossing. See the ACA831 flight status page for this flight to view local times or setup timezone preferences in your user account.

Time Position Orientation Groundspeed Altitude Reporting Facility
EDT Latitude Longitude Course Direction KTS MPH feet Rate Location/Type
03:58PM 45.4600 -73.7500 19° North 1 1  Level FlightAware
04:04PM 45.4600 -73.7530 270° West 13 15  Level FlightAware
04:04PM 45.4610 -73.7520 35° Northeast 16 18  Level FlightAware
04:05PM 45.4640 -73.7500 25° Northeast 18 21  Level FlightAware
04:06PM 45.4660 -73.7500 360° North 15 17 60 Level FlightAware
04:06PM 45.4670 -73.7480 55° Northeast 17 20 60 Level FlightAware
04:06PM 45.4670 -73.7450 90° East 20 23 60 Level FlightAware
04:07PM 45.4670 -73.7430 90° East 23 26 60 Level FlightAware
04:09PM 45.4323 -74.0977 264° West  Level FlightAware Approximate
04:09PM 45.4700 -73.7290 264° West 29 33  Level FlightAware
04:09PM 45.4730 -73.7260 35° Northeast 32 37 120 Level FlightAware
04:10PM 45.4750 -73.7220 55° Northeast 36 41 180 Level FlightAware
04:10PM 45.4780 -73.7180 43° Northeast 13 15 180 Level FlightAware
04:11PM 45.4770 -73.7160 125° Southeast 16 18 300 Level FlightAware
04:11PM 45.4650 -73.7320 223° Southwest 155 178 400 1,560 Climbing FlightAware
04:12PM 45.4560 -73.7430 221° Southwest 153 176 1,300 3,120 Climbing FlightAware
04:12PM 45.4420 -73.7610 222° Southwest 166 191 2,600 2,700 Climbing FlightAware
04:13PM 45.4240 -73.7850 223° Southwest 208 239 3,600 2,520 Climbing FlightAware
04:13PM 45.4170 -73.7990 235° Southwest 216 249 4,300 3,000 Climbing FlightAware
04:13PM 45.4130 -73.8150 250° West 226 260 4,800 3,000 Climbing FlightAware
04:13PM 45.4100 -73.8340 257° West 238 274 5,500 3,120 Climbing FlightAware
04:14PM 45.4000 -73.8800 253° West 251 289 7,000 1,680 Climbing FlightAware
04:14PM 45.3890 -73.9220 250° West 253 291 7,100 60 Climbing FlightAware
04:15PM 45.3840 -73.9700 262° West 248 285 7,100  Level FlightAware
04:15PM 45.3870 -74.0150 275° West 246 283 7,100  Level FlightAware
04:16PM 45.3900 -74.0570 276° West 247 284 7,100 180 Level FlightAware
04:16PM 45.3930 -74.1060 275° West 249 287 7,300 1,200 Climbing FlightAware
04:16PM 45.3950 -74.1300 277° West 247 284 8,000 2,880 Climbing FlightAware
04:17PM 45.3970 -74.1560 276° West 251 289 9,000 3,000 Climbing FlightAware
04:17PM 45.4040 -74.2530 276° West 302 348 11,500 3,060 Climbing FlightAware
04:18PM 45.4100 -74.3350 276° West 322 371 13,700 3,300 Climbing FlightAware
04:19PM 45.4110 -74.4650 271° West 345 397 17,000 3,240 Climbing FlightAware
04:20PM 45.3970 -74.5480 257° West 360 414 18,800 2,820 Climbing FlightAware
04:20PM 45.3790 -74.6550 257° West 376 433 20,900 2,640 Climbing FlightAware
04:21PM 45.3620 -74.7520 256° West 388 447 22,600 2,460 Climbing FlightAware
04:22PM 45.3420 -74.8710 257° West 403 464 24,500 2,400 Climbing FlightAware
04:23PM 45.3250 -74.9750 257° West 412 474 26,100 2,100 Climbing FlightAware
04:23PM 45.3070 -75.0740 256° West 424 488 27,300 1,920 Climbing FlightAware
04:24PM 45.2850 -75.2020 256° West 436 502 28,800 2,280 Climbing FlightAware
04:25PM 45.2650 -75.3190 256° West 432 497 30,700 2,340 Climbing FlightAware
04:25PM 45.2440 -75.4380 256° West 431 496 32,200 2,040 Climbing FlightAware
04:26PM 45.2250 -75.5470 256° West 428 493 33,600 1,380 Climbing FlightAware
04:27PM 45.2080 -75.6380 255° West 433 498 34,000 240 Climbing FlightAware
04:27PM 45.1850 -75.7670 256° West 435 501 34,000  Level FlightAware
04:28PM 45.1650 -75.8790 256° West 430 495 34,000  Level FlightAware
04:29PM 45.1420 -76.0050 256° West 426 490 34,000  Level FlightAware
04:30PM 45.1220 -76.1110 255° West 424 488 34,000  Level FlightAware
04:30PM 45.1030 -76.2110 255° West 423 487 34,000  Level FlightAware
04:31PM 45.0730 -76.3010 245° Southwest 426 490 34,000  Level FlightAware
04:32PM 45.0330 -76.4040 241° Southwest 422 486 34,000  Level FlightAware
04:32PM 44.9960 -76.5000 241° Southwest 419 482 34,000  Level FlightAware
04:33PM 44.9610 -76.6180 247° West 418 481 34,000  Level FlightAware
04:34PM 44.9330 -76.7160 248° West 418 481 34,000  Level FlightAware
04:34PM 44.9040 -76.8210 249° West 421 484 34,000  Level FlightAware
04:35PM 44.8730 -76.9300 248° West 422 486 34,000  Level FlightAware
04:36PM 44.8400 -77.0480 249° West 423 487 34,000  Level FlightAware
04:36PM 44.8090 -77.1560 248° West 425 489 34,000  Level FlightAware
04:37PM 44.7790 -77.2620 248° West 426 490 34,000  Level FlightAware
04:38PM 44.7490 -77.3670 248° West 429 494 34,000  Level FlightAware
04:39PM 44.7220 -77.4600 248° West 429 494 34,000  Level FlightAware
04:39PM 44.6910 -77.5670 248° West 429 494 34,000  Level FlightAware
04:40PM 44.6470 -77.7200 248° West 431 496 34,000  Level FlightAware
04:41PM 44.6140 -77.8340 248° West 431 496 34,000  Level FlightAware
04:42PM 44.5800 -77.9520 248° West 432 497 34,000 -180 Level FlightAware
04:42PM 44.5530 -78.0430 247° West 417 480 33,800 -1,620 Descending FlightAware
04:43PM 44.5210 -78.1510 247° West 421 484 31,900 -3,000 Descending FlightAware
04:44PM 44.4870 -78.2670 248° West 435 501 29,300 -3,540 Descending FlightAware
04:44PM 44.4570 -78.3680 247° West 445 512 26,900 -3,480 Descending FlightAware
04:45PM 44.4230 -78.4790 247° West 443 510 24,700 -3,720 Descending FlightAware
04:46PM 44.3880 -78.5970 247° West 450 518 21,700 -3,420 Descending FlightAware
04:47PM 44.3390 -78.7110 239° Southwest 430 495 19,600 -3,060 Descending FlightAware
04:47PM 44.2840 -78.7860 224° Southwest 404 465 17,400 -3,720 Descending FlightAware
04:48PM 44.2300 -78.8550 222° Southwest 391 450 14,600 -3,480 Descending FlightAware
04:49PM 44.1740 -78.9270 223° Southwest 352 405 12,500 -2,820 Descending FlightAware
04:49PM 44.1270 -78.9870 223° Southwest 318 366 10,700 -2,100 Descending FlightAware
04:50PM 44.0880 -79.0380 223° Southwest 278 320 9,700 -1,680 Descending FlightAware
04:50PM 44.0600 -79.0730 222° Southwest 263 303 8,800 -1,200 Descending FlightAware
04:51PM 44.0340 -79.1060 222° Southwest 247 284 8,500 -660 Descending FlightAware
04:51PM 44.0130 -79.1320 222° Southwest 237 273 8,200 -600 Descending FlightAware
04:52PM 43.9900 -79.1630 224° Southwest 238 274 8,000 -240 Descending FlightAware
04:52PM 43.9690 -79.1880 221° Southwest 239 275 8,000  Level FlightAware
04:53PM 43.9490 -79.2140 223° Southwest 238 274 8,000  Level FlightAware
04:53PM 43.9320 -79.2350 222° Southwest 240 276 8,000  Level FlightAware
04:53PM 43.9110 -79.2620 223° Southwest 239 275 8,000  Level FlightAware
04:54PM 43.8950 -79.2820 222° Southwest 240 276 8,000 -300 Level FlightAware
04:54PM 43.8750 -79.3080 223° Southwest 237 273 7,800 -780 Descending FlightAware
04:54PM 43.8630 -79.3250 226° Southwest 236 272 7,500 -1,320 Descending FlightAware
04:55PM 43.8440 -79.3520 226° Southwest 235 270 6,900 -1,200 Descending FlightAware
04:55PM 43.8350 -79.3660 228° Southwest 231 266 6,700 -660 Descending FlightAware
04:56PM 43.8160 -79.3930 226° Southwest 211 243 6,500 -600 Descending FlightAware
04:56PM 43.7970 -79.4210 227° Southwest 189 217 6,200 -1,020 Descending FlightAware
04:57PM 43.7800 -79.4440 224° Southwest 169 194 5,500 -1,440 Descending FlightAware
04:57PM 43.7660 -79.4640 226° Southwest 164 189 4,900 -1,620 Descending FlightAware
04:57PM 43.7560 -79.4790 227° Southwest 159 183 4,300 -1,920 Descending FlightAware
04:58PM 43.7440 -79.4980 229° Southwest 162 186 3,500 -1,980 Descending FlightAware
04:58PM 43.7290 -79.5190 225° Southwest 162 186 2,500 -2,100 Descending FlightAware
04:58PM 43.7230 -79.5270 224° Southwest 162 186 2,100 -1,560 Descending FlightAware
04:59PM 43.7110 -79.5460 229° Southwest 142 163 1,600 -900 Descending FlightAware
05:00PM 43.6910 -79.5740 225° Southwest 135 155 1,100 -780 Descending FlightAware
05:00PM 43.6870 -79.5810 232° Southwest 139 160 900 -300 Descending FlightAware
05:00PM 43.6750 -79.5970 224° Southwest 140 161 900  Level FlightAware